Weather observations for the past three days for
Wahpeton, Harry Stern Airport
Imperial (Metric)
Date Time (cdt) Wind (mph) Vis. (mi.) Weather Sky Cond. Temperature (ºF) Relative Humidity Wind Chill (°F) Heat Index (°F) Pressure Precipitation (in)
Air Dwpt 6 hour altimeter (in) sea level (mb) 1 hr 3 hr 6 hr
Max. Min.
07 02:15 S 7 10.00 Mostly Cloudy SCT047 BKN055 BKN060 28.4 21.2 74% 22 29.89 0.0
07 01:55 S 8 10.00 Mostly Cloudy FEW038 BKN048 BKN055 28.4 19.4 69% 21 29.9 0.0
07 01:35 S 9 10.00 Mostly Cloudy FEW038 BKN045 BKN055 28.4 21.2 74% 20 29.9 0.0
07 01:15 S 10 10.00 Mostly Cloudy SCT046 BKN050 30.2 21.2 69% 22 29.9 0.0
07 00:55 S 9 10.00 Mostly Cloudy BKN050 BKN060 28.4 19.4 69% 20 29.9 0.0
07 00:35 S 6 G 14 10.00 Mostly Cloudy FEW034 SCT048 BKN055 30.2 17.6 59% 25 29.91 0.0
07 00:15 SW 12 10.00 Mostly Cloudy FEW027 SCT034 BKN042 32 21.2 64% 24 29.92 0.0
06 23:55 S 6 10.00 Mostly Cloudy FEW032 SCT038 BKN045 33.8 21.2 60% 29 29.92 0.0
06 23:35 SE 5 10.00 Mostly Cloudy SCT041 BKN055 BKN070 32 23 69% 28 29.92 0.0
06 23:15 SE 5 9.00 Mostly Cloudy SCT044 BKN050 BKN060 30.2 23 75% 26 29.92 0.0
06 22:55 S 8 9.00 Mostly Cloudy BKN047 BKN055 30.2 17.6 59% 23 29.94 0.0
06 22:35 S 7 5.00 Mostly Cloudy with Haze BKN050 BKN055 BKN065 32 19.4 60% 26 29.94 0.0
06 22:15 S 6 10.00 Partly Cloudy SCT050 SCT060 32 19.4 60% 27 29.95 0.0
06 21:55 S 6 10.00 A Few Clouds FEW050 35.6 19.4 52% 31 29.95 0.0
06 21:35 Calm 10.00 A Few Clouds FEW050 FEW055 37.4 19.4 48% 29.95 0.0
06 21:15 Calm 10.00 Fair CLR 39.2 19.4 45% 29.95 0.0
06 20:55 Calm 10.00 Fair CLR 39.2 19.4 45% 29.95 0.0
06 20:35 NW 5 10.00 Partly Cloudy SCT060 41 21.2 45% 38 29.95 0.0
06 20:15 NW 6 10.00 Overcast OVC060 44.6 21.2 39% 42 29.95 0.0
06 19:55 NW 7 10.00 Overcast OVC060 42.8 21.2 42% 39 29.95 0.0
06 19:35 N 7 10.00 Overcast OVC060 42.8 21.2 42% 39 29.95 0.0
06 19:15 N 3 10.00 Overcast FEW055 OVC070 44.6 21.2 39% 29.96 0.0
06 18:55 NW 5 10.00 Overcast FEW055 OVC065 44.6 21.2 39% 43 29.96 0.0
06 18:35 W 3 10.00 Overcast OVC065 44.6 21.2 39% 29.96 0.0
06 18:15 NW 7 10.00 Overcast FEW055 OVC065 44.6 21.2 39% 41 29.97 0.0
06 17:55 NW 5 G 13 10.00 Overcast OVC065 44.6 21.2 39% 43 29.97 0.0
06 17:35 NW 9 10.00 Overcast OVC060 44.6 23 43% 40 29.97 0.0
06 17:15 NW 7 G 15 10.00 Overcast OVC060 44.6 21.2 39% 41 29.98 0.0
06 16:55 NW 7 G 13 10.00 Overcast OVC055 44.6 21.2 39% 41 29.98 0.0
06 16:35 N 6 G 14 10.00 Overcast FEW050 OVC055 44.6 23 43% 42 29.98 0.0
06 16:15 NW 7 G 15 10.00 Overcast BKN050 OVC055 42.8 21.2 42% 39 29.99 0.0
06 15:55 W 7 10.00 Overcast BKN050 OVC055 42.8 21.2 42% 39 29.99 0.0
06 15:35 NW 7 G 16 10.00 Overcast BKN050 OVC055 42.8 21.2 42% 39 30 0.0
06 15:15 N 10 10.00 Overcast BKN049 OVC055 42.8 23 46% 38 30 0.0
06 14:55 NW 7 10.00 Overcast OVC047 42.8 21.2 42% 39 30.01 0.0
06 14:35 Vrbl 6 G 12 10.00 Overcast OVC049 42.8 23 46% 40 30.01 0.0
06 14:15 NW 9 G 16 10.00 Overcast OVC047 42.8 23 46% 38 30.01 0.0
06 13:55 Vrbl 6 G 13 10.00 Overcast OVC046 41 23 49% 38 30.02 0.0
06 13:35 W 8 G 15 10.00 Overcast OVC046 41 23 49% 36 30.02 0.0
06 13:15 NW 12 10.00 Overcast OVC047 41 23 49% 35 30.03 0.0
06 12:55 W 7 G 13 10.00 Overcast OVC047 41 23 49% 37 30.03 0.0
06 12:35 W 9 G 15 10.00 Overcast OVC045 41 23 49% 36 30.04 0.0
06 12:15 NW 10 10.00 Overcast OVC043 39.2 21.2 48% 33 30.04 0.0
06 11:55 NW 7 10.00 Overcast OVC043 39.2 23 52% 35 30.04 0.0
06 11:35 N 10 10.00 Overcast OVC043 39.2 23 52% 33 30.05 0.0
06 11:15 NW 8 10.00 Overcast OVC042 39.2 23 52% 34 30.05 0.0
06 10:55 W 7 10.00 Overcast OVC041 39.2 23 52% 35 30.05 0.0
06 10:35 NW 9 10.00 Overcast OVC041 37.4 23 56% 31 30.05 0.0
06 10:15 NW 6 10.00 Overcast OVC042 37.4 23 56% 33 30.05 0.0
06 09:55 NW 6 10.00 Overcast OVC042 37.4 23 56% 33 30.06 0.0
06 09:35 NW 5 G 12 10.00 Overcast OVC041 37.4 23 56% 34 30.05 0.0
06 09:15 NW 7 10.00 Overcast OVC041 37.4 23 56% 33 30.05 0.0
06 08:55 N 9 10.00 Overcast OVC041 37.4 23 56% 31 30.05 0.0
06 08:35 N 8 10.00 Overcast OVC042 35.6 23 60% 30 30.05 0.0
06 08:15 NW 8 10.00 Overcast OVC042 35.6 23 60% 30 30.05 0.0
06 07:55 NW 6 10.00 Overcast OVC043 35.6 24.8 65% 31 30.04 0.0
06 07:35 NW 6 10.00 Overcast OVC043 35.6 24.8 65% 31 30.04 0.0
06 07:15 NW 5 10.00 Overcast OVC042 35.6 24.8 65% 32 30.03 0.0
06 06:55 NW 5 10.00 Overcast OVC042 33.8 24.8 70% 30 30.02 0.0
06 06:35 N 7 10.00 Overcast OVC043 35.6 23 60% 31 30.02 0.0
06 06:15 N 7 10.00 Overcast OVC045 33.8 23 65% 28 30.01 0.0
06 05:55 NW 6 10.00 Overcast OVC045 33.8 24.8 70% 29 30.01 0.0
06 05:35 NW 8 10.00 Overcast OVC045 35.6 23 60% 30 30.01 0.0
06 05:15 N 6 10.00 Overcast OVC046 35.6 23 60% 31 30.01 0.0
06 04:55 N 8 10.00 Overcast OVC047 35.6 23 60% 30 30 0.0
06 04:35 N 8 10.00 Overcast OVC047 35.6 23 60% 30 30 0.0
06 04:15 N 10 10.00 Overcast OVC048 35.6 23 60% 29 30 0.0
06 03:55 N 8 10.00 Overcast OVC049 35.6 23 60% 30 29.99 0.0
06 03:35 N 8 10.00 Overcast OVC049 35.6 24.8 65% 30 29.99 0.0
06 03:15 N 9 10.00 Overcast OVC047 35.6 24.8 65% 29 29.99 0.0
06 02:55 NW 8 10.00 Overcast OVC050 35.6 24.8 65% 30 29.99 0.0
06 02:35 NW 6 10.00 Overcast OVC050 35.6 24.8 65% 31 29.99 0.0
06 02:15 N 8 10.00 Overcast OVC049 37.4 23 56% 32 29.99 0.0
06 01:55 N 5 10.00 Overcast OVC050 37.4 24.8 60% 34 29.99 0.0
06 01:35 N 6 10.00 Overcast SCT046 OVC050 37.4 23 56% 33 29.99 0.0
06 01:15 NW 7 10.00 Overcast OVC050 37.4 23 56% 33 29.99 0.0
06 00:55 NW 8 10.00 Overcast OVC050 37.4 23 56% 32 29.99 0.0
06 00:35 NW 9 10.00 Overcast OVC050 37.4 23 56% 31 29.98 0.0
06 00:15 NW 9 10.00 Overcast OVC050 37.4 23 56% 31 29.98 0.0
05 23:55 NW 10 10.00 Overcast OVC050 37.4 23 56% 31 29.98 0.0
05 23:35 NW 10 G 16 10.00 Overcast OVC050 37.4 23 56% 31 29.98 0.0
05 23:15 NW 13 10.00 Overcast OVC050 39.2 23 52% 32 29.97 0.0
05 22:55 NW 13 10.00 Overcast OVC055 39.2 23 52% 32 29.97 0.0
05 22:35 NW 12 G 17 10.00 Overcast OVC055 39.2 23 52% 33 29.96 0.0
05 22:15 NW 10 10.00 Overcast OVC060 39.2 23 52% 33 29.96 0.0
05 21:55 NW 10 10.00 Overcast OVC060 39.2 23 52% 33 29.96 0.0
05 21:35 N 13 10.00 Overcast OVC055 39.2 23 52% 32 29.95 0.0
05 21:15 N 14 10.00 Overcast OVC055 41 21.2 45% 34 29.94 0.0
05 20:55 NW 13 10.00 Overcast OVC060 41 21.2 45% 34 29.94 0.0
05 20:35 N 13 10.00 Overcast FEW050 OVC060 41 21.2 45% 34 29.93 0.0
05 20:15 N 13 10.00 Overcast SCT050 OVC060 41 23 49% 34 29.93 0.0
05 19:55 NW 13 G 18 10.00 Overcast OVC060 41 21.2 45% 34 29.93 0.0
05 19:35 N 16 10.00 Overcast OVC060 41 23 49% 33 29.92 0.0
05 19:15 N 13 G 20 10.00 Overcast BKN055 OVC065 41 23 49% 34 29.92 0.0
05 18:55 N 14 10.00 Overcast BKN050 OVC065 42.8 23 46% 36 29.92 0.0
05 18:35 NW 15 10.00 Overcast BKN055 OVC065 42.8 23 46% 36 29.92 0.0
05 18:15 N 12 G 17 10.00 Overcast OVC055 42.8 23 46% 37 29.92 0.0
05 17:55 N 15 10.00 Overcast OVC050 42.8 23 46% 36 29.92 0.0
05 17:35 NW 13 G 20 10.00 Overcast BKN050 OVC060 42.8 23 46% 37 29.92 0.0
05 17:15 NW 14 10.00 Overcast OVC050 42.8 23 46% 36 29.92 0.0
05 16:55 NW 14 G 22 10.00 Overcast OVC050 42.8 23 46% 36 29.91 0.0
05 16:35 NW 15 G 22 10.00 Overcast OVC050 42.8 21.2 42% 36 29.91 0.0
05 16:15 N 14 10.00 Overcast OVC050 42.8 23 46% 36 29.91 0.0
05 15:55 NW 16 G 24 10.00 Overcast OVC055 42.8 23 46% 36 29.91 0.0
05 15:35 NW 17 10.00 Overcast OVC050 42.8 23 46% 35 29.91 0.0
05 15:15 N 15 8.00 Overcast OVC050 42.8 23 46% 36 29.92 0.0
05 14:55 N 16 G 28 6.00 Overcast with Haze OVC050 42.8 23 46% 36 29.92 0.0
05 14:35 N 17 G 25 10.00 Overcast OVC048 42.8 23 46% 35 29.92 0.0
05 14:15 NW 18 10.00 Overcast OVC050 42.8 23 46% 35 29.91 0.0
05 13:55 NW 20 G 26 10.00 Overcast OVC050 42.8 21.2 42% 35 29.91 0.0
05 13:35 N 20 10.00 Overcast OVC050 42.8 21.2 42% 35 29.91 0.0
05 13:15 NW 21 9.00 Overcast and Breezy OVC050 42.8 21.2 42% 35 29.9 0.0
05 12:55 NW 16 10.00 Overcast OVC049 42.8 23 46% 36 29.9 0.0
05 12:35 N 16 G 23 10.00 Overcast OVC047 42.8 21.2 42% 36 29.89 0.0
05 12:15 N 14 G 21 10.00 Overcast OVC048 42.8 23 46% 36 29.89 0.0
05 11:55 N 14 G 23 10.00 Overcast BKN048 OVC055 42.8 21.2 42% 36 29.88 0.0
05 11:35 N 16 10.00 Mostly Cloudy SCT044 BKN050 BKN060 44.6 23 43% 38 29.88 0.0
05 11:15 NW 14 G 24 10.00 Mostly Cloudy SCT044 BKN050 44.6 24.8 46% 39 29.87 0.0
05 10:55 N 15 G 21 10.00 Partly Cloudy SCT047 SCT055 44.6 24.8 46% 38 29.87 0.0
05 10:35 N 13 10.00 Mostly Cloudy SCT040 BKN048 44.6 24.8 46% 39 29.86 0.0
05 10:15 N 10 10.00 Partly Cloudy SCT041 SCT047 42.8 26.6 53% 38 29.86 0.0
05 09:55 NW 14 G 21 10.00 Partly Cloudy FEW037 SCT060 42.8 26.6 53% 36 29.86 0.0
05 09:35 NW 14 G 23 10.00 Mostly Cloudy SCT060 BKN110 42.8 26.6 53% 36 29.85 0.0
05 09:15 NW 10 G 16 10.00 Overcast OVC100 41 26.6 57% 35 29.84 0.0
05 08:55 NW 10 10.00 Overcast OVC100 41 26.6 57% 35 29.84 0.0
05 08:35 NW 12 10.00 Overcast OVC100 39.2 24.8 56% 33 29.84 0.0
05 08:15 NW 6 10.00 Mostly Cloudy BKN100 39.2 24.8 56% 36 29.84 0.0
05 07:55 N 3 10.00 Fair CLR 37.4 26.6 65% 29.83 0.0
05 07:35 N 5 10.00 Fair CLR 35.6 28.4 75% 32 29.83 0.0
05 07:15 N 3 10.00 Fair CLR 33.8 30.2 87% 29.82 0.0
05 06:55 W 3 10.00 Mostly Cloudy BKN090 32 30.2 93% 29.81 0.0
05 06:35 W 5 10.00 Overcast OVC090 30.2 28.4 93% 26 29.81 0.0
05 06:15 W 3 10.00 Overcast OVC085 28.4 24.8 86% 29.81 0.0
05 05:55 NW 3 10.00 Overcast OVC080 28.4 24.8 86% 29.81 0.0
05 05:35 NW 3 10.00 Mostly Cloudy FEW032 FEW039 BKN075 28.4 24.8 86% 29.81 0.0
05 05:15 Calm 10.00 Mostly Cloudy FEW032 BKN039 BKN050 30.2 24.8 80% 29.81 0.0
05 04:55 NW 6 10.00 Mostly Cloudy SCT042 BKN050 BKN075 32 24.8 75% 27 29.81 0.0
05 04:35 NW 5 10.00 Mostly Cloudy FEW038 FEW044 BKN075 32 24.8 75% 28 29.81 0.0
05 04:15 NW 6 10.00 Overcast OVC075 33.8 26.6 75% 29 29.81 0.0
05 03:55 NW 6 10.00 Overcast OVC075 35.6 26.6 70% 31 29.8 0.0
05 03:35 N 6 10.00 Overcast FEW050 BKN070 OVC080 35.6 23 60% 31 29.8 0.0
05 03:15 N 6 10.00 Overcast FEW047 OVC075 37.4 23 56% 33 29.8 0.0
05 02:55 N 7 10.00 Overcast FEW046 BKN070 OVC075 37.4 23 56% 33 29.8 0.0
05 02:35 N 9 10.00 Overcast FEW048 FEW065 OVC075 37.4 23 56% 31 29.8 0.0
05 02:15 N 10 10.00 Overcast FEW065 OVC075 37.4 24.8 60% 31 29.8 0.0
05 01:55 N 13 10.00 Overcast SCT065 OVC075 37.4 26.6 65% 30 29.79 0.0
05 01:35 N 10 10.00 Overcast FEW046 SCT065 OVC075 39.2 28.4 65% 33 29.79 0.0
05 01:15 N 14 10.00 Overcast SCT045 BKN065 OVC075 39.2 30.2 70% 32 29.79 0.0
05 00:55 N 9 10.00 Overcast SCT045 BKN050 OVC070 39.2 28.4 65% 34 29.79 0.0
05 00:35 N 8 10.00 Overcast FEW044 SCT050 OVC065 41 28.4 61% 36 29.78 0.0
05 00:15 N 12 10.00 Overcast FEW042 BKN050 OVC080 41 28.4 61% 35 29.78 0.0
04 23:55 N 10 10.00 Overcast FEW043 BKN050 OVC075 41 28.4 61% 35 29.77 0.0
04 23:35 N 13 10.00 Overcast SCT047 BKN055 OVC080 41 28.4 61% 34 29.77 0.0
04 23:15 N 12 10.00 Overcast SCT049 BKN055 OVC070 41 28.4 61% 35 29.77 0.0
04 22:55 N 12 10.00 Overcast BKN050 BKN060 OVC070 41 28.4 61% 35 29.76 0.0
04 22:35 N 12 10.00 Overcast SCT049 BKN055 OVC070 42.8 26.6 53% 37 29.76 0.0
04 22:15 N 12 10.00 Overcast FEW050 OVC075 42.8 26.6 53% 37 29.75 0.0
04 21:35 N 8 G 16 10.00 Overcast SCT065 OVC075 44.6 23 43% 41 29.74 0.0
04 21:15 NW 10 10.00 Overcast SCT065 OVC080 44.6 21.2 39% 40 29.73 0.0
04 20:55 NW 13 10.00 Overcast OVC080 46.4 21.2 37% 41 29.72 0.0
04 20:35 NW 12 G 21 10.00 Overcast OVC080 46.4 21.2 37% 42 29.71 0.0
04 20:15 NW 17 G 23 10.00 Overcast FEW065 OVC080 46.4 21.2 37% 40 29.71 0.0
04 19:55 NW 15 G 23 10.00 Overcast SCT065 OVC080 48.2 21.2 34% 43 29.7 0.0
04 19:35 NW 18 G 24 10.00 Overcast FEW065 OVC080 48.2 21.2 34% 42 29.7 0.0
04 19:15 NW 16 G 22 10.00 Overcast SCT070 OVC080 48.2 23 37% 43 29.7 0.0
04 18:55 NW 20 G 26 10.00 Mostly Cloudy FEW070 BKN080 48.2 21.2 34% 42 29.7 0.0
04 18:35 NW 25 G 33 10.00 Overcast and Breezy SCT070 OVC080 50 21.2 32% 43 29.69 0.0
04 18:15 NW 22 G 31 10.00 Overcast and Breezy SCT070 OVC080 50 21.2 32% 44 29.68 0.0
04 17:55 NW 26 G 33 10.00 Mostly Cloudy and Windy SCT070 BKN080 50 21.2 32% 43 29.68 0.0
04 17:35 NW 18 G 33 10.00 Mostly Cloudy SCT070 BKN080 50 23 35% 44 29.68 0.0
04 17:15 NW 24 G 32 10.00 Overcast and Breezy SCT065 OVC080 50 24.8 37% 43 29.68 0.0
04 16:55 NW 20 G 31 10.00 Overcast BKN065 OVC075 50 24.8 37% 44 29.67 0.0
04 16:35 NW 23 G 33 10.00 Overcast and Breezy BKN065 OVC075 50 24.8 37% 44 29.67 0.0
04 16:15 NW 25 G 36 10.00 Overcast and Breezy BKN065 OVC075 50 24.8 37% 43 29.67 0.0
04 15:55 NW 22 G 33 10.00 Overcast and Breezy OVC060 50 23 35% 44 29.67 0.0
04 15:35 NW 24 G 32 10.00 Overcast and Breezy OVC060 50 23 35% 43 29.67 0.0
04 15:15 NW 28 G 35 10.00 Overcast and Windy OVC060 48.2 23 37% 41 29.67 0.0
04 14:55 NW 28 G 33 10.00 Overcast and Windy BKN055 OVC065 48.2 24.8 40% 41 29.67 0.0
04 14:35 NW 25 G 35 10.00 Overcast and Breezy SCT048 OVC060 48.2 26.6 43% 41 29.67 0.0
04 14:15 NW 20 G 31 10.00 Overcast BKN050 OVC060 48.2 28.4 46% 42 29.66 0.0
04 13:55 NW 26 G 33 10.00 Overcast and Windy BKN048 OVC060 48.2 26.6 43% 41 29.65 0.0
04 13:35 NW 23 G 32 10.00 Overcast and Breezy FEW049 OVC060 48.2 28.4 46% 41 29.65 0.0
04 13:15 NW 26 10.00 Overcast and Windy FEW043 SCT050 OVC060 50 28.4 43% 43 29.64 0.0
04 12:55 NW 28 G 36 10.00 Overcast and Windy SCT044 OVC055 50 30.2 47% 43 29.63 0.0
04 12:35 NW 26 G 33 10.00 Overcast and Windy BKN050 OVC060 48.2 28.4 46% 41 29.63 0.0
04 12:15 NW 21 G 35 10.00 Overcast and Breezy BKN049 OVC055 50 28.4 43% 44 29.62 0.0
04 11:55 NW 29 10.00 Overcast and Windy BKN047 OVC055 48.2 26.6 43% 40 29.61 0.0
04 11:35 NW 24 G 33 10.00 Overcast and Breezy BKN050 OVC055 50 28.4 43% 43 29.61 0.0
04 11:15 NW 29 G 39 10.00 Mostly Cloudy and Windy BKN049 BKN055 50 28.4 43% 43 29.6 0.0
04 10:55 NW 25 G 36 10.00 Mostly Cloudy and Breezy FEW040 SCT048 BKN055 50 30.2 47% 43 29.6 0.0 0.01
04 10:35 NW 25 G 32 10.00 Mostly Cloudy and Breezy SCT042 BKN049 50 30.2 47% 43 29.6 0.0
04 10:15 NW 28 10.00 Partly Cloudy and Windy SCT040 SCT047 50 32 50% 43 29.59 0.0
04 09:55 NW 26 10.00 Mostly Cloudy and Windy BKN037 BKN043 48.2 32 54% 41 29.59 0.0
04 09:35 NW 24 G 31 10.00 Mostly Cloudy and Breezy BKN034 BKN040 46.4 32 57% 39 29.59 0.0
04 09:15 NW 26 10.00 Partly Cloudy and Windy SCT032 46.4 33.8 62% 38 29.58 0.0
04 08:55 NW 25 G 33 10.00 Fair and Breezy CLR 48.2 32 54% 41 29.57 0.0
04 08:35 NW 24 G 35 10.00 Fair and Breezy CLR 46.4 32 57% 39 29.57 0.0
04 08:15 NW 29 G 36 10.00 Fair and Windy CLR 46.4 32 57% 38 29.56 0.0
04 07:55 NW 23 G 32 10.00 Fair and Breezy CLR 46.4 32 57% 39 29.55 0.0
04 07:35 NW 26 10.00 Fair and Windy CLR 46.4 32 57% 38 29.54 0.0
04 07:15 N 26 G 37 10.00 Partly Cloudy and Windy FEW038 SCT100 48.2 33.8 58% 41 29.52 0.0
04 06:55 NW 14 G 24 10.00 Overcast OVC100 50 37.4 62% 45 29.5 0.0
04 06:35 W 16 G 23 10.00 Overcast OVC100 50 39.2 67% 45 29.49 0.0
04 06:15 W 13 10.00 Overcast OVC095 48.2 39.2 71% 43 29.48 0.0
04 05:55 W 12 10.00 Overcast OVC090 48.2 39.2 71% 44 29.47 0.0
04 05:35 W 9 10.00 Overcast OVC095 48.2 37.4 66% 45 29.47 0.0
04 05:15 W 7 10.00 Overcast OVC110 48.2 37.4 66% 46 29.46 0.0
04 04:55 W 8 10.00 Mostly Cloudy FEW065 FEW070 BKN110 48.2 37.4 66% 45 29.46 0.0
04 04:35 NW 10 10.00 Overcast BKN065 BKN080 OVC110 50 37.4 62% 46 29.45 0.0
04 04:15 NW 7 10.00 Overcast BKN060 BKN080 OVC095 50 37.4 62% 48 29.45 0.0
04 03:55 N 10 G 18 10.00 Overcast BKN055 BKN095 OVC120 51.8 37.4 58% 29.45 0.0
04 03:35 N 21 G 28 10.00 Overcast and Breezy FEW050 SCT060 OVC120 53.6 37.4 54% 29.46 0.0
04 03:15 N 20 G 26 10.00 Mostly Cloudy SCT024 SCT039 BKN049 53.6 37.4 54% 29.45 0.0
04 02:55 N 24 G 32 10.00 Overcast and Breezy SCT023 SCT050 OVC120 53.6 37.4 54% 29.44 0.0
04 02:35 NW 29 G 38 10.00 Mostly Cloudy and Windy SCT024 SCT050 BKN100 57.2 37.4 48% 29.43 0.0
Date Time (cdt) Wind (mph) Vis. (mi.) Weather Sky Cond. Air Dwpt Max. Min. Relative Humidity Wind Chill (°F) Heat Index (°F) altimeter (in) sea level (mb) 1 hr 3 hr 6 hr
6 hour
Temperature (ºF) Pressure Precipitation (in)